Brian Head, Utah
Current Conditions -  °F | °C
As of 6:53 AM on Thursday 30 Oct 2014 (Local Time) from KCDC Reporting Station
Clear Clear  
Wind Chill: 25°   Ceiling: Unl
Heat Index: 31°   Visibility: 10mi
Dew Point: 19°   Wind: 6mph
Humidity: 61%   Direction: 220°SW
Pressure: 30.26"   Gusts: NA
Location:  37.69°N, 112.85°W
Report Text: KCDC 301253Z AUTO 22005KT 10SM CLR M01/M07 A3026 RMK AO2 SLP228 T10061072 TSNO
Loading
Personal Weather Stations






























Interactive Weather Map
Tropical Storm Tracking
New forecast layout! Learn more

10-Day Weather Forecast

Advertisements
Track Severe Weather on mobile